etsfs.com

SPEED LOG BR GSoares

SPEED LOG BR

Online ETSFS
  • Iniciou dia:: 2019-12-02 as :21:58:15
  • Finalizou dia: as:23:16:08
  • Saiu de:Санкт-Петербург Empresa: Радус
  • Para: Gdańsk Empresa: Sanbuilders
  • Carga:Tijolos Pesando: 20 t. Frete :42643
  • Código Viagem:1805914
  • Fabricante:Mercedes-Benz Modelo:Actros
  • Combustivel Inicio/Fim: 303 L / 533 L / Consumo: 489 L - Media 2.47 KM/L
  • Odometro Inicio/Fim: 284143 / 285353
  • Distancia Estimada 1204 Km Distancia Balsa: 0
  • km Rodado: 1210 Km - Ponto$ : $60.5
  • Tempo Total da Viagem 77.00 Min. / Média de KM/Min : 15.71
Histórico Viagem
Data H.Jogo Vel. Odômetro RPM Marcha Diesel Engine Cabine Pneus Chassis Trailer
02/12/2019-21:58:12 08:17 0 284143 550.0006 0 303 0 0 0 0 0 0
02/12/2019-22:11:30 09:37 89 284173 1253.575 12 282 0 0 0 0 0 0
02/12/2019-22:12:48 09:45 87 284203 1230.975 12 266 0 0 0 0 0 0
02/12/2019-22:13:51 09:51 90 284233 1253.073 12 254 0 0 0 0 0 0
02/12/2019-22:14:58 09:58 63 284263 1399.594 10 250 0 0 0 0 0 0
02/12/2019-22:16:06 10:05 89 284293 1257.269 12 237 0 0 0 0 0 0
02/12/2019-22:17:09 10:11 89 284323 1246.88 12 226 0 0 0 0 0 0
02/12/2019-22:18:12 10:17 89 284353 1248.552 12 215 0 0 0 0 0 0
02/12/2019-22:19:16 10:24 90 284383 1253.714 12 204 0 0 0 0 0 0
02/12/2019-22:20:19 10:30 89 284413 1247.936 12 195 0 0 0 0 0 0
02/12/2019-22:21:23 10:37 90 284443 1250.515 12 185 0 0 0 0 0 0
02/12/2019-22:22:27 10:43 91 284473 1259.971 12 177 0 0 0 0 0 0
02/12/2019-22:27:37 11:14 0 284497 454.5196 0 170 0 0 0 0 0 0
02/12/2019-22:28:39 11:20 82 284503 1156.559 12 594 0 0 0 0 0 0
02/12/2019-22:31:53 11:39 56 284533 1262.3 10 583 0 0 0 0 0 0
02/12/2019-22:33:16 11:48 90 284563 1248.801 12 568 0 0 0 0 0 0
02/12/2019-22:34:20 11:54 89 284593 1252.837 12 556 0 0 0 0 0 0
02/12/2019-22:35:23 12:01 89 284623 1245.431 12 547 0 0 0 0 0 0
02/12/2019-22:36:04 12:05 90 284642 1257.127 12 542 0 0 0 0 0 1
02/12/2019-22:36:04 12:05 90 284642 1258.256 12 542 0 0 0 0 0 1
02/12/2019-22:36:27 12:07 89 284653 1252.387 12 538 0 0 0 1 0 1
02/12/2019-22:37:30 12:13 90 284683 1254.915 12 528 0 0 0 1 0 1
02/12/2019-22:38:34 12:20 87 284713 1205.609 12 520 0 0 0 1 0 1
02/12/2019-22:39:48 12:27 74 284743 1042.652 12 507 0 0 0 1 0 1
02/12/2019-22:41:12 12:35 66 284773 1189.526 11 494 0 0 0 1 0 1
02/12/2019-22:42:40 12:44 72 284803 1311.066 11 480 0 0 0 1 0 1
02/12/2019-22:43:46 12:51 89 284833 1245.546 12 466 0 0 0 1 0 1
02/12/2019-22:45:08 12:59 85 284863 1204.81 12 454 0 0 0 1 0 1
02/12/2019-22:46:27 13:07 89 284893 1254.37 12 438 0 0 0 1 0 1
02/12/2019-22:47:30 13:13 90 284923 1248.46 12 429 0 0 0 1 0 1
02/12/2019-22:48:39 13:20 89 284953 1247.95 12 418 0 0 0 1 0 1
02/12/2019-22:50:03 13:29 81 284983 1449.35 11 404 0 0 0 1 0 1
02/12/2019-22:51:07 13:35 91 285013 1264.195 12 394 0 0 0 1 0 1
02/12/2019-22:54:40 13:56 78 285043 1100.245 12 379 0 0 0 1 0 1
02/12/2019-22:54:46 13:57 73 285046 1015.611 12 378 1 0 1 2 2 1
02/12/2019-22:54:46 13:57 73 285046 1015.611 12 378 1 0 1 2 2 1
02/12/2019-22:54:46 13:57 73 285046 1015.611 12 378 1 0 1 2 2 1
02/12/2019-22:54:47 13:57 69 285046 977.2354 12 378 2 1 3 2 4 1
02/12/2019-22:54:47 13:57 69 285046 977.2354 12 378 2 1 3 2 4 1
02/12/2019-22:54:47 13:57 69 285046 977.2354 12 378 2 1 3 2 4 1
02/12/2019-22:54:47 13:57 69 285046 977.2354 12 378 2 1 3 2 4 1
02/12/2019-22:56:10 14:05 89 285073 1253.434 12 360 2 1 3 2 4 1
02/12/2019-22:56:22 14:06 84 285079 1391.396 11 359 2 1 3 2 4 2
02/12/2019-22:57:33 14:13 53 285103 1203.713 10 350 2 1 3 2 4 2
02/12/2019-22:58:49 14:21 61 285133 1378.257 10 339 2 1 3 2 4 2
02/12/2019-23:00:02 14:28 75 285163 1049.88 12 327 2 1 3 2 4 2
02/12/2019-23:02:37 14:44 80 285193 1136.319 12 314 2 1 3 2 4 2
02/12/2019-23:05:19 15:00 47 285223 1373.898 9 597 2 1 3 2 4 2
02/12/2019-23:08:24 15:19 81 285253 1138.956 12 577 2 1 3 2 4 2
02/12/2019-23:09:41 15:26 83 285283 1174.228 12 562 2 1 3 2 4 2
02/12/2019-23:10:47 15:33 87 285313 1228.629 12 550 2 1 3 2 4 2
02/12/2019-23:11:59 15:40 79 285343 1443.695 11 537 2 1 3 3 4 2
02/12/2019-23:12:24 15:42 79 285350 1105.709 12 534 2 1 3 3 4 2
02/12/2019-23:16:10 16:02 0 285353 0 0 533 2 1 3 3 4 0
Multas
Data Jogo Hora Jogo Data Hora Limite Tolerância Vel. Multa
Não existe Multa

Sobre nós

Pensando na facilidade e comodidade de criar sua empresa virtual e armazenar seus registros, o etsfs passou a oferecer um aplicativo que ao executá-lo juntamente com um simulador descrito no menu,você poderá registrar suas viagens automaticamente em nosso site sem nenhum problema,FAÇA SEU REGISTRO!

Redes Sociais
Doações

Contatos